4XCWC LLHA-LLHA
Flight info
| Callsign | 4XCWC |
|---|---|
| Flight time | 0h 5m |
| Altitude | 1200 |
| Route | LLHA CIRCUITS |
| Aircraft | C152/L-V/N |
Departure
| Time | 2026-04-25 14:21 |
|---|---|
| Airport | Uri Michaeli Haifa International Airport (LLHA) |
Arrival
| Time | 2026-04-25 14:27 |
|---|---|
| Airport | Uri Michaeli Haifa International Airport (LLHA) |
| Time | Latitude | Longitude | Altitude | Speed | Heading |
|---|---|---|---|---|---|
| 2026-04-25 14:15 | 32.81146 | 35.04133 | 14 ft | 0 kts | 339° |
| 2026-04-25 14:17 | 32.81150 | 35.04133 | 14 ft | 2 kts | 20° |
| 2026-04-25 14:17 | 32.81141 | 35.04162 | 13 ft | 5 kts | 139° |
| 2026-04-25 14:18 | 32.81145 | 35.04197 | 13 ft | 5 kts | 63° |
| 2026-04-25 14:18 | 32.81158 | 35.04239 | 13 ft | 0 kts | 71° |
| 2026-04-25 14:18 | 32.81163 | 35.04257 | 13 ft | 11 kts | 73° |
| 2026-04-25 14:18 | 32.81101 | 35.04346 | 12 ft | 25 kts | 166° |
| 2026-04-25 14:19 | 32.80938 | 35.04394 | 12 ft | 23 kts | 158° |
| 2026-04-25 14:19 | 32.80797 | 35.04472 | 10 ft | 22 kts | 146° |
| 2026-04-25 14:19 | 32.80661 | 35.04543 | 9 ft | 21 kts | 161° |
| 2026-04-25 14:19 | 32.80587 | 35.04567 | 8 ft | 4 kts | 227° |
| 2026-04-25 14:20 | 32.80655 | 35.04523 | 9 ft | 34 kts | 339° |
| 2026-04-25 14:20 | 32.80745 | 35.04487 | 10 ft | 49 kts | 343° |
| 2026-04-25 14:20 | 32.81454 | 35.04177 | 156 ft | 74 kts | 338° |
| 2026-04-25 14:20 | 32.81915 | 35.03968 | 326 ft | 70 kts | 339° |
| 2026-04-25 14:21 | 32.82372 | 35.03939 | 448 ft | 76 kts | 24° |
| 2026-04-25 14:21 | 32.82817 | 35.04352 | 574 ft | 84 kts | 35° |
| 2026-04-25 14:21 | 32.82946 | 35.04998 | 678 ft | 104 kts | 140° |
| 2026-04-25 14:21 | 32.82347 | 35.05468 | 830 ft | 103 kts | 151° |
| 2026-04-25 14:22 | 32.81698 | 35.05894 | 947 ft | 109 kts | 154° |
| 2026-04-25 14:22 | 32.80973 | 35.06230 | 1001 ft | 115 kts | 165° |
| 2026-04-25 14:22 | 32.80409 | 35.05845 | 852 ft | 106 kts | 244° |
| 2026-04-25 14:22 | 32.80039 | 35.05172 | 600 ft | 80 kts | 242° |
| 2026-04-25 14:23 | 32.80134 | 35.04763 | 360 ft | 60 kts | 336° |
| 2026-04-25 14:23 | 32.80515 | 35.04590 | 40 ft | 54 kts | 340° |
| 2026-04-25 14:23 | 32.80885 | 35.04430 | 100 ft | 64 kts | 339° |
| 2026-04-25 14:23 | 32.81318 | 35.04241 | 212 ft | 69 kts | 339° |
| 2026-04-25 14:24 | 32.81711 | 35.04245 | 427 ft | 56 kts | 32° |
| 2026-04-25 14:24 | 32.81966 | 35.04608 | 639 ft | 60 kts | 39° |
| 2026-04-25 14:24 | 32.82236 | 35.05085 | 806 ft | 78 kts | 73° |
| 2026-04-25 14:24 | 32.81941 | 35.05648 | 949 ft | 96 kts | 144° |
| 2026-04-25 14:25 | 32.81325 | 35.06075 | 1023 ft | 111 kts | 151° |
| 2026-04-25 14:25 | 32.80600 | 35.06524 | 1007 ft | 120 kts | 153° |
| 2026-04-25 14:25 | 32.79858 | 35.06980 | 1032 ft | 119 kts | 152° |
| 2026-04-25 14:25 | 32.79612 | 35.07129 | 1050 ft | 116 kts | 156° |
| 2026-04-25 14:26 | 32.78366 | 35.06703 | 658 ft | 121 kts | 233° |
| 2026-04-25 14:26 | 32.78262 | 35.05944 | 621 ft | 92 kts | 309° |
| 2026-04-25 14:26 | 32.78716 | 35.05404 | 509 ft | 95 kts | 320° |
| 2026-04-25 14:26 | 32.79295 | 35.05055 | 379 ft | 90 kts | 336° |
| 2026-04-25 14:27 | 32.79839 | 35.04871 | 200 ft | 66 kts | 352° |
| 2026-04-25 14:27 | 32.80165 | 35.04740 | 83 ft | 36 kts | 341° |
| 2026-04-25 14:27 | 32.80335 | 35.04670 | 664 ft | 0 kts | 328° |
| 2026-04-25 14:27 | 32.80453 | 35.04623 | 7 ft | 0 kts | 328° |
| 2026-04-25 14:28 | 32.80584 | 35.04559 | 8 ft | 43 kts | 339° |
| 2026-04-25 14:28 | 32.80932 | 35.04405 | 117 ft | 53 kts | 339° |
| 2026-04-25 14:28 | 32.81316 | 35.04236 | 168 ft | 70 kts | 337° |
| 2026-04-25 14:28 | 32.81752 | 35.04027 | 339 ft | 63 kts | 338° |
| 2026-04-25 14:29 | 32.82160 | 35.03859 | 493 ft | 60 kts | 354° |
| 2026-04-25 14:29 | 32.82554 | 35.04154 | 603 ft | 75 kts | 40° |
| 2026-04-25 14:29 | 32.82819 | 35.04704 | 787 ft | 87 kts | 80° |
| 2026-04-25 14:29 | 32.82493 | 35.05350 | 884 ft | 102 kts | 146° |
| 2026-04-25 14:30 | 32.81858 | 35.05787 | 901 ft | 109 kts | 154° |
| 2026-04-25 14:30 | 32.80668 | 35.06480 | 1068 ft | 78 kts | 153° |
| 2026-04-25 14:30 | 32.80289 | 35.06904 | 1334 ft | 70 kts | 124° |
| 2026-04-25 14:31 | 32.79895 | 35.07462 | 1310 ft | 103 kts | 127° |
| 2026-04-25 14:31 | 32.79389 | 35.08112 | 1261 ft | 109 kts | 142° |
| 2026-04-25 14:31 | 32.78639 | 35.08335 | 1072 ft | 120 kts | 189° |
| 2026-04-25 14:31 | 32.77837 | 35.08140 | 1163 ft | 109 kts | 198° |
| 2026-04-25 14:32 | 32.77344 | 35.07561 | 1086 ft | 106 kts | 264° |
| 2026-04-25 14:32 | 32.77509 | 35.06761 | 1022 ft | 99 kts | 298° |
| 2026-04-25 14:32 | 32.77874 | 35.06068 | 982 ft | 99 kts | 309° |
| 2026-04-25 14:32 | 32.78393 | 35.05535 | 897 ft | 102 kts | 329° |
| 2026-04-25 14:33 | 32.79014 | 35.05170 | 673 ft | 94 kts | 339° |
| 2026-04-25 14:33 | 32.79699 | 35.04939 | 319 ft | 97 kts | 353° |
| 2026-04-25 14:33 | 32.80144 | 35.04747 | 137 ft | 50 kts | 341° |
| 2026-04-25 14:33 | 32.80431 | 35.04626 | 37 ft | 42 kts | 341° |
| 2026-04-25 14:34 | 32.80688 | 35.04512 | 9 ft | 40 kts | 338° |
| 2026-04-25 14:34 | 32.81017 | 35.04374 | 83 ft | 49 kts | 339° |
| 2026-04-25 14:34 | 32.81367 | 35.04222 | 132 ft | 59 kts | 339° |
| 2026-04-25 14:34 | 32.81758 | 35.04056 | 258 ft | 56 kts | 340° |
| 2026-04-25 14:35 | 32.81873 | 35.04004 | 352 ft | 49 kts | 337° |
| 2026-04-25 14:35 | 32.82383 | 35.03918 | 482 ft | 62 kts | 34° |
| 2026-04-25 14:35 | 32.82696 | 35.04308 | 650 ft | 67 kts | 39° |
| 2026-04-25 14:35 | 32.82811 | 35.04868 | 762 ft | 87 kts | 120° |
| 2026-04-25 14:36 | 32.82332 | 35.05364 | 794 ft | 94 kts | 137° |
| 2026-04-25 14:36 | 32.81828 | 35.05846 | 805 ft | 94 kts | 138° |
| 2026-04-25 14:36 | 32.81297 | 35.06327 | 752 ft | 98 kts | 142° |
| 2026-04-25 14:36 | 32.80717 | 35.06766 | 710 ft | 98 kts | 155° |
| 2026-04-25 14:37 | 32.80104 | 35.07166 | 643 ft | 103 kts | 152° |
| 2026-04-25 14:37 | 32.79485 | 35.07563 | 661 ft | 97 kts | 156° |
| 2026-04-25 14:37 | 32.78967 | 35.07834 | 861 ft | 72 kts | 165° |
| 2026-04-25 14:37 | 32.78532 | 35.08015 | 850 ft | 56 kts | 167° |
| 2026-04-25 14:38 | 32.78150 | 35.08137 | 698 ft | 56 kts | 184° |
| 2026-04-25 14:38 | 32.78159 | 35.08356 | 72 ft | 84 kts | 7° |
| 2026-04-25 14:38 | 32.78609 | 35.08324 | 16 ft | 37 kts | 4° |